createdAt,value
2024-04-24T00:00:24.621Z,6.75
2024-04-24T00:03:13.338Z,7.28
2024-04-24T00:05:41.477Z,7.13
2024-04-24T00:08:10.283Z,8.27
2024-04-24T00:10:39.446Z,7.35
2024-04-24T00:13:08.289Z,8.25
2024-04-24T00:15:36.467Z,7.35
2024-04-24T00:18:05.402Z,7.80
2024-04-24T00:20:33.645Z,8.32
2024-04-24T00:23:03.778Z,7.47
2024-04-24T00:25:32.073Z,7.85
2024-04-24T00:28:00.801Z,6.90
2024-04-24T00:30:28.986Z,7.18
2024-04-24T00:32:58.606Z,7.65
2024-04-24T00:35:26.905Z,6.95
2024-04-24T00:37:55.588Z,6.85
2024-04-24T00:40:23.805Z,7.75
2024-04-24T00:42:52.610Z,6.75
2024-04-24T00:45:20.821Z,8.43
2024-04-24T00:47:51.108Z,7.00
2024-04-24T00:50:20.930Z,6.60
2024-04-24T00:52:49.795Z,6.82
2024-04-24T00:55:18.203Z,7.25
2024-04-24T00:57:46.916Z,6.97
2024-04-24T01:00:15.441Z,6.88
2024-04-24T01:02:44.734Z,8.35
2024-04-24T01:05:13.128Z,7.47
2024-04-24T01:07:42.143Z,7.38
2024-04-24T01:10:20.195Z,7.68
2024-04-24T01:12:51.620Z,9.23
2024-04-24T01:15:20.127Z,8.32
2024-04-24T01:17:53.119Z,8.38
2024-04-24T01:20:25.163Z,7.60
2024-04-24T01:23:26.449Z,7.57
2024-04-24T01:26:29.963Z,7.60
2024-04-24T01:28:58.623Z,7.13
2024-04-24T01:31:26.841Z,6.65
2024-04-24T01:33:55.534Z,6.93
2024-04-24T01:36:23.742Z,7.47
2024-04-24T01:38:52.394Z,7.30
2024-04-24T01:41:20.520Z,7.60
2024-04-24T01:43:49.254Z,7.07
2024-04-24T01:46:17.513Z,7.13
2024-04-24T01:48:46.237Z,7.40
2024-04-24T01:51:14.392Z,7.82
2024-04-24T01:53:42.973Z,8.00
2024-04-24T01:56:14.269Z,8.02
2024-04-24T01:58:42.934Z,7.22
2024-04-24T02:01:11.266Z,7.40
2024-04-24T02:03:39.908Z,8.10
2024-04-24T02:06:08.102Z,7.78
2024-04-24T02:08:37.323Z,8.00
2024-04-24T02:11:05.608Z,7.70
2024-04-24T02:13:34.415Z,8.30
2024-04-24T02:16:02.618Z,7.43
2024-04-24T02:18:31.379Z,7.88
2024-04-24T02:20:59.591Z,7.70
2024-04-24T02:23:32.773Z,8.38
2024-04-24T02:26:01.055Z,8.13
2024-04-24T02:28:29.682Z,8.98
2024-04-24T02:30:57.895Z,8.88
2024-04-24T02:33:26.637Z,7.93
2024-04-24T02:35:54.863Z,8.48
2024-04-24T02:38:23.664Z,7.40
2024-04-24T02:40:52.304Z,8.38
2024-04-24T02:43:21.285Z,8.77
2024-04-24T02:45:49.473Z,8.93
2024-04-24T02:48:18.283Z,9.02
2024-04-24T02:50:46.521Z,8.27
2024-04-24T02:53:15.254Z,8.45
2024-04-24T02:55:43.496Z,9.07
2024-04-24T02:58:12.217Z,8.38
2024-04-24T03:00:40.394Z,9.68
2024-04-24T03:03:09.303Z,9.73
2024-04-24T03:05:37.589Z,10.45
2024-04-24T03:08:06.306Z,9.05
2024-04-24T03:10:34.482Z,9.45
2024-04-24T03:13:03.062Z,9.63
2024-04-24T03:15:31.195Z,9.68
2024-04-24T03:17:59.868Z,9.43
2024-04-24T03:20:28.192Z,9.50
2024-04-24T03:22:56.825Z,9.60
2024-04-24T03:25:25.052Z,9.70
2024-04-24T03:27:53.663Z,9.85
2024-04-24T03:30:21.916Z,9.75
2024-04-24T03:32:50.766Z,10.15
2024-04-24T03:35:19.047Z,10.13
2024-04-24T03:37:47.758Z,10.95
2024-04-24T03:40:15.882Z,11.07
2024-04-24T03:42:45.778Z,11.18
2024-04-24T03:45:14.031Z,12.50
2024-04-24T03:47:43.115Z,12.82
2024-04-24T03:50:11.507Z,12.40
2024-04-24T03:52:40.143Z,13.02
2024-04-24T03:55:08.369Z,13.02
2024-04-24T03:57:36.952Z,12.00
2024-04-24T04:00:05.561Z,12.88
2024-04-24T04:02:40.612Z,12.80
2024-04-24T04:05:08.899Z,13.32
2024-04-24T04:07:37.604Z,13.15
2024-04-24T04:10:06.029Z,14.95
2024-04-24T04:12:36.945Z,13.38
2024-04-24T04:15:05.531Z,14.20
2024-04-24T04:17:34.187Z,13.25
2024-04-24T04:20:02.862Z,14.07
2024-04-24T04:22:31.478Z,13.73
2024-04-24T04:24:59.718Z,14.13
2024-04-24T04:27:28.605Z,15.27
2024-04-24T04:29:57.013Z,14.68
2024-04-24T04:32:26.148Z,14.63
2024-04-24T04:34:54.541Z,15.65
2024-04-24T04:37:23.243Z,16.00
2024-04-24T04:39:51.568Z,14.15
2024-04-24T04:42:20.313Z,14.77
2024-04-24T04:44:48.441Z,14.93
2024-04-24T04:47:17.143Z,15.07
2024-04-24T04:49:45.302Z,14.07
2024-04-24T04:52:13.921Z,14.77
2024-04-24T04:54:42.172Z,13.43
2024-04-24T04:57:10.946Z,14.65
2024-04-24T04:59:39.153Z,13.38
2024-04-24T05:02:07.861Z,13.02
2024-04-24T05:04:36.210Z,14.45
2024-04-24T05:07:04.816Z,15.05
2024-04-24T05:09:33.837Z,13.57
2024-04-24T05:12:02.745Z,12.45
2024-04-24T05:14:31.009Z,12.52
2024-04-24T05:16:59.907Z,11.40
2024-04-24T05:19:28.190Z,13.32
2024-04-24T05:21:56.707Z,12.38
2024-04-24T05:24:24.855Z,12.18
2024-04-24T05:27:12.214Z,13.30
2024-04-24T05:29:40.390Z,13.75
2024-04-24T05:32:08.902Z,12.23
2024-04-24T05:34:37.022Z,13.02
2024-04-24T05:37:05.608Z,12.45
2024-04-24T05:39:33.655Z,16.08
2024-04-24T05:42:02.212Z,12.40
2024-04-24T05:44:35.114Z,12.02
2024-04-24T05:47:05.346Z,12.98
2024-04-24T05:49:33.702Z,12.68
2024-04-24T05:52:02.223Z,14.70
2024-04-24T05:54:30.458Z,13.85
2024-04-24T05:56:59.013Z,13.50
2024-04-24T05:59:27.321Z,13.57
2024-04-24T06:01:55.851Z,14.27
2024-04-24T06:04:24.068Z,15.55
2024-04-24T06:06:55.376Z,14.00
2024-04-24T06:09:24.529Z,15.75
2024-04-24T06:11:53.130Z,16.05
2024-04-24T06:14:21.389Z,14.20
2024-04-24T06:16:50.020Z,14.45
2024-04-24T06:19:18.215Z,15.27
2024-04-24T06:21:46.861Z,16.05
2024-04-24T06:24:15.867Z,15.15
2024-04-24T06:26:46.223Z,14.10
2024-04-24T06:29:14.760Z,14.73
2024-04-24T06:31:43.693Z,14.27
2024-04-24T06:34:12.068Z,15.18
2024-04-24T06:36:40.663Z,14.70
2024-04-24T06:39:08.925Z,16.77
2024-04-24T06:41:37.592Z,15.63
2024-04-24T06:44:05.888Z,16.58
2024-04-24T06:46:34.580Z,14.27
2024-04-24T06:49:02.713Z,15.45
2024-04-24T06:51:31.319Z,14.10
2024-04-24T06:53:59.508Z,15.13
2024-04-24T06:56:28.064Z,15.80
2024-04-24T06:58:57.630Z,14.55
2024-04-24T07:01:26.483Z,14.38
2024-04-24T07:03:54.947Z,15.80
2024-04-24T07:06:23.585Z,15.23
2024-04-24T07:08:51.642Z,16.38
2024-04-24T07:11:20.380Z,16.25
2024-04-24T07:13:48.551Z,15.13
2024-04-24T07:16:18.825Z,15.38
2024-04-24T07:18:46.990Z,15.98
2024-04-24T07:21:15.654Z,16.90
2024-04-24T07:23:43.838Z,15.75
2024-04-24T07:26:12.516Z,16.58
2024-04-24T07:28:41.319Z,16.13
2024-04-24T07:31:10.121Z,16.48
2024-04-24T07:33:38.395Z,16.08
2024-04-24T07:36:08.491Z,16.02
2024-04-24T07:38:37.110Z,14.50
2024-04-24T07:41:07.594Z,16.40
2024-04-24T07:43:36.413Z,15.82
2024-04-24T07:46:07.166Z,12.32
2024-04-24T07:48:35.533Z,12.23
2024-04-24T07:51:05.938Z,16.05
2024-04-24T07:53:36.179Z,16.23
2024-04-24T07:56:05.749Z,15.48
2024-04-24T07:58:34.755Z,15.50
2024-04-24T08:01:03.571Z,15.30
2024-04-24T08:03:33.119Z,15.07
2024-04-24T08:06:01.984Z,16.38
2024-04-24T08:08:30.107Z,16.13
2024-04-24T08:10:58.642Z,16.92
2024-04-24T08:13:26.842Z,15.30
2024-04-24T08:15:55.379Z,16.08
2024-04-24T08:18:23.763Z,15.15
2024-04-24T08:20:52.263Z,16.48
2024-04-24T08:23:25.813Z,12.85
2024-04-24T08:25:55.976Z,13.88
2024-04-24T08:28:33.262Z,15.85
2024-04-24T08:31:10.189Z,14.23
2024-04-24T08:33:38.614Z,16.58
2024-04-24T08:36:13.263Z,17.17
2024-04-24T08:38:41.630Z,14.70
2024-04-24T08:41:11.519Z,17.00
2024-04-24T08:43:45.634Z,16.63
2024-04-24T08:46:14.524Z,14.18
2024-04-24T08:48:43.967Z,12.27
2024-04-24T08:51:14.418Z,15.35
2024-04-24T08:53:54.726Z,14.90
2024-04-24T08:56:30.344Z,12.52
2024-04-24T08:59:04.307Z,14.95
2024-04-24T09:01:38.352Z,14.95
2024-04-24T09:04:09.868Z,13.70
2024-04-24T09:06:41.222Z,14.18
2024-04-24T09:09:09.532Z,15.63
2024-04-24T09:11:38.570Z,14.57
2024-04-24T09:14:07.836Z,16.75
2024-04-24T09:16:37.872Z,15.57
2024-04-24T09:19:06.326Z,17.13
2024-04-24T09:21:35.126Z,14.55
2024-04-24T09:24:03.418Z,15.57
2024-04-24T09:26:32.618Z,15.25
2024-04-24T09:29:00.810Z,15.38
2024-04-24T09:31:29.380Z,17.20
2024-04-24T09:33:57.660Z,14.95
2024-04-24T09:36:30.622Z,16.42
2024-04-24T09:38:59.272Z,15.18
2024-04-24T09:41:28.053Z,15.18
2024-04-24T09:43:56.203Z,15.70
2024-04-24T09:46:24.806Z,15.75
2024-04-24T09:48:53.783Z,14.98
2024-04-24T09:51:22.399Z,16.75
2024-04-24T09:53:50.521Z,16.35
2024-04-24T09:56:23.694Z,16.35
2024-04-24T09:58:55.135Z,15.05
2024-04-24T10:01:24.764Z,14.13
2024-04-24T10:03:56.093Z,15.15
2024-04-24T10:06:26.882Z,14.45
2024-04-24T10:08:57.500Z,13.48
2024-04-24T10:11:31.243Z,12.75
2024-04-24T10:14:00.434Z,12.52
2024-04-24T10:16:31.733Z,13.45
2024-04-24T10:19:02.836Z,12.75
2024-04-24T10:21:32.850Z,12.55
2024-04-24T10:24:03.135Z,12.55
2024-04-24T10:26:32.990Z,12.35
2024-04-24T10:29:02.898Z,11.07
2024-04-24T10:31:31.413Z,12.35
2024-04-24T10:34:01.380Z,13.45
2024-04-24T10:36:30.183Z,11.57
2024-04-24T10:38:58.396Z,10.98
2024-04-24T10:41:28.127Z,13.77
2024-04-24T10:43:56.959Z,12.38
2024-04-24T10:46:26.800Z,13.55
2024-04-24T10:49:00.649Z,13.00
2024-04-24T10:51:29.673Z,12.63
2024-04-24T10:54:00.686Z,11.65
2024-04-24T10:56:37.608Z,13.05
2024-04-24T10:59:08.660Z,12.00
2024-04-24T11:01:47.415Z,11.98
2024-04-24T11:04:26.399Z,11.48
2024-04-24T11:09:24.872Z,10.95
2024-04-24T11:11:55.430Z,12.13
2024-04-24T11:14:23.785Z,11.18
2024-04-24T11:16:57.057Z,10.65
2024-04-24T11:19:25.798Z,10.60
2024-04-24T11:21:54.426Z,10.80
2024-04-24T11:24:32.888Z,11.60
2024-04-24T11:27:02.212Z,10.60
2024-04-24T11:29:40.498Z,10.15
2024-04-24T11:32:11.506Z,11.00
2024-04-24T11:34:41.123Z,12.40
2024-04-24T11:37:10.144Z,10.25
2024-04-24T11:39:38.479Z,11.73
2024-04-24T11:42:07.862Z,11.10
2024-04-24T11:44:37.144Z,10.95
2024-04-24T11:47:06.014Z,11.27
2024-04-24T11:49:34.831Z,10.75
2024-04-24T11:52:07.176Z,10.90
2024-04-24T11:54:35.396Z,10.70
2024-04-24T11:57:04.347Z,10.93
2024-04-24T11:59:32.653Z,9.27
2024-04-24T12:02:01.262Z,8.95
2024-04-24T12:04:29.502Z,8.23
2024-04-24T12:06:57.994Z,7.80
2024-04-24T12:09:26.235Z,8.63
2024-04-24T12:11:54.824Z,8.85
2024-04-24T12:14:24.216Z,7.82
2024-04-24T12:16:54.384Z,8.18
2024-04-24T12:19:22.452Z,8.10
2024-04-24T12:21:50.967Z,7.90
2024-04-24T12:24:19.175Z,8.43
2024-04-24T12:26:47.822Z,7.82
2024-04-24T12:29:16.166Z,7.28
2024-04-24T12:31:46.643Z,8.60
2024-04-24T12:34:15.014Z,6.43
2024-04-24T12:36:43.674Z,7.50
2024-04-24T12:39:11.807Z,7.72
2024-04-24T12:41:40.600Z,6.78
2024-04-24T12:44:08.814Z,7.32
2024-04-24T12:46:37.407Z,6.25
2024-04-24T12:49:05.662Z,6.85
2024-04-24T12:51:34.735Z,6.82
2024-04-24T12:54:02.986Z,7.40
2024-04-24T12:56:31.664Z,7.93
2024-04-24T12:58:59.889Z,6.15
2024-04-24T13:01:29.684Z,6.75
2024-04-24T13:03:57.987Z,6.93
2024-04-24T13:06:26.537Z,7.05
2024-04-24T13:08:57.051Z,6.00
2024-04-24T13:11:27.530Z,7.35
2024-04-24T13:13:55.682Z,9.27
2024-04-24T13:16:24.762Z,8.48
2024-04-24T13:18:53.412Z,7.57
2024-04-24T13:21:23.455Z,7.45
2024-04-24T13:23:51.944Z,6.97
2024-04-24T13:26:20.466Z,6.93
2024-04-24T13:28:48.621Z,6.70
2024-04-24T13:31:17.287Z,6.68
2024-04-24T13:33:45.588Z,6.97
2024-04-24T13:36:14.517Z,7.50
2024-04-24T13:38:43.697Z,7.20
2024-04-24T13:41:13.074Z,6.85
2024-04-24T13:43:41.078Z,6.18
2024-04-24T13:46:09.582Z,6.68
2024-04-24T13:48:40.646Z,7.50
2024-04-24T13:51:09.599Z,7.05
2024-04-24T13:53:37.776Z,7.25
2024-04-24T13:56:06.505Z,9.95
2024-04-24T13:58:34.908Z,6.22
2024-04-24T14:01:03.618Z,6.88
2024-04-24T14:03:31.956Z,6.85
2024-04-24T14:06:01.507Z,6.75
2024-04-24T14:08:29.714Z,6.75
2024-04-24T14:10:59.153Z,7.85
2024-04-24T14:13:27.397Z,7.10
2024-04-24T14:15:55.928Z,7.00
2024-04-24T14:18:24.081Z,7.28
2024-04-24T14:20:52.623Z,6.65
2024-04-24T14:23:20.707Z,7.43
2024-04-24T14:25:49.297Z,6.50
2024-04-24T14:28:18.761Z,6.63
2024-04-24T14:30:47.310Z,7.55
2024-04-24T14:33:15.419Z,7.07
2024-04-24T14:35:44.013Z,6.75
2024-04-24T14:38:12.167Z,7.72
2024-04-24T14:40:40.730Z,7.25
2024-04-24T14:43:08.923Z,8.63
2024-04-24T14:45:37.585Z,7.90
2024-04-24T14:48:06.398Z,9.38
2024-04-24T14:50:35.131Z,9.13
2024-04-24T14:53:03.739Z,9.82
2024-04-24T14:55:33.513Z,11.13
2024-04-24T14:58:01.692Z,11.57
2024-04-24T15:00:30.204Z,10.88
2024-04-24T15:02:58.389Z,11.32
2024-04-24T15:05:27.263Z,46.10
2024-04-24T15:07:55.376Z,182.88
2024-04-24T15:10:23.862Z,105.30
2024-04-24T15:12:52.059Z,30.17
2024-04-24T15:15:20.619Z,12.25
2024-04-24T15:17:49.145Z,8.05
2024-04-24T15:20:17.841Z,6.57
2024-04-24T15:22:46.228Z,7.53
2024-04-24T15:25:15.765Z,5.43
2024-04-24T15:27:43.970Z,6.28
2024-04-24T15:30:17.631Z,6.28
2024-04-24T15:32:45.881Z,7.10
2024-04-24T15:35:14.592Z,6.32
2024-04-24T15:37:42.905Z,6.70
2024-04-24T15:40:11.731Z,6.72
2024-04-24T15:42:40.582Z,6.10
2024-04-24T15:45:10.581Z,5.38
2024-04-24T15:47:38.949Z,6.80
2024-04-24T15:50:07.943Z,6.63
2024-04-24T15:52:36.042Z,6.05
2024-04-24T15:55:04.852Z,6.05
2024-04-24T15:57:33.077Z,6.43
2024-04-24T16:00:03.896Z,5.50
2024-04-24T16:02:40.762Z,4.47
2024-04-24T16:05:09.474Z,4.50
2024-04-24T16:07:37.699Z,3.70
2024-04-24T16:10:06.684Z,4.25
2024-04-24T16:12:34.986Z,4.95
2024-04-24T16:15:03.712Z,4.43
2024-04-24T16:17:31.959Z,4.90
2024-04-24T16:20:00.720Z,4.88
2024-04-24T16:22:28.882Z,5.30
2024-04-24T16:24:57.402Z,5.15
2024-04-24T16:27:25.561Z,5.25
2024-04-24T16:29:54.086Z,5.50
2024-04-24T16:32:22.680Z,7.03
2024-04-24T16:34:51.671Z,7.68
2024-04-24T16:37:19.870Z,8.35
2024-04-24T16:39:49.021Z,7.22
2024-04-24T16:42:17.102Z,6.53
2024-04-24T16:44:45.659Z,6.60
2024-04-24T16:47:14.466Z,7.90
2024-04-24T16:49:43.131Z,18.42
2024-04-24T16:52:13.982Z,22.52
2024-04-24T16:54:42.479Z,16.58
2024-04-24T16:57:10.639Z,9.90
2024-04-24T16:59:39.312Z,8.15
2024-04-24T17:02:08.351Z,7.18
2024-04-24T17:04:37.464Z,6.32
2024-04-24T17:07:05.792Z,9.70
2024-04-24T17:09:34.201Z,12.32
2024-04-24T17:12:03.930Z,14.63
2024-04-24T17:14:32.475Z,9.57
2024-04-24T17:17:00.684Z,7.72
2024-04-24T17:19:29.686Z,9.30
2024-04-24T17:21:57.930Z,16.55
2024-04-24T17:24:26.356Z,16.38
2024-04-24T17:26:55.942Z,14.27
2024-04-24T17:29:24.625Z,13.10
2024-04-24T17:31:52.771Z,8.07
2024-04-24T17:34:24.525Z,10.00
2024-04-24T17:36:52.631Z,9.77
2024-04-24T17:39:21.107Z,10.20
2024-04-24T17:41:50.439Z,10.80
2024-04-24T17:44:19.181Z,10.15
2024-04-24T17:46:48.689Z,9.38
2024-04-24T17:49:17.175Z,11.63
2024-04-24T17:51:45.232Z,12.68
2024-04-24T17:54:13.727Z,10.60
2024-04-24T17:56:41.761Z,8.23
2024-04-24T17:59:10.264Z,7.18
2024-04-24T18:01:38.461Z,6.35
2024-04-24T18:04:07.033Z,4.78
2024-04-24T18:06:35.296Z,6.05
2024-04-24T18:09:03.824Z,4.88
2024-04-24T18:11:32.021Z,5.93
2024-04-24T18:14:00.649Z,7.65
2024-04-24T18:16:28.783Z,11.75
2024-04-24T18:18:57.251Z,5.57
2024-04-24T18:21:26.008Z,4.63
2024-04-24T18:23:54.562Z,4.50
2024-04-24T18:26:22.712Z,3.80
2024-04-24T18:28:51.252Z,14.13
2024-04-24T18:31:19.476Z,4.90
2024-04-24T18:33:48.159Z,4.13
2024-04-24T18:36:16.399Z,4.38
2024-04-24T18:38:45.157Z,3.40
2024-04-24T18:41:13.860Z,3.05
2024-04-24T18:43:43.274Z,3.33
2024-04-24T18:46:13.155Z,4.45
2024-04-24T18:48:41.843Z,3.80
2024-04-24T18:51:11.110Z,3.92
2024-04-24T18:53:39.652Z,3.50
2024-04-24T18:56:09.002Z,3.38
2024-04-24T18:58:37.574Z,3.55
2024-04-24T19:01:06.003Z,3.15
2024-04-24T19:03:34.642Z,3.22
2024-04-24T19:06:02.874Z,3.92
2024-04-24T19:08:31.529Z,4.25
2024-04-24T19:11:00.768Z,3.53
2024-04-24T19:13:29.384Z,3.83
2024-04-24T19:15:57.704Z,3.70
2024-04-24T19:18:26.400Z,4.00
2024-04-24T19:20:54.704Z,3.88
2024-04-24T19:23:23.258Z,4.53
2024-04-24T19:25:52.899Z,4.40
2024-04-24T19:28:23.534Z,4.03
2024-04-24T19:30:51.769Z,4.32
2024-04-24T19:33:20.487Z,4.22
2024-04-24T19:35:51.746Z,4.43
2024-04-24T19:38:22.853Z,4.13
2024-04-24T19:40:50.959Z,4.53
2024-04-24T19:43:19.568Z,3.95
2024-04-24T19:45:47.724Z,4.78
2024-04-24T19:48:16.788Z,3.85
2024-04-24T19:50:45.025Z,4.40
2024-04-24T19:53:14.505Z,4.43
2024-04-24T19:55:42.684Z,5.00
2024-04-24T19:58:11.193Z,3.50
2024-04-24T20:00:39.403Z,3.47
2024-04-24T20:03:08.230Z,3.80
2024-04-24T20:05:36.524Z,4.47
2024-04-24T20:08:05.598Z,3.95
2024-04-24T20:10:33.877Z,3.70
2024-04-24T20:13:02.471Z,4.15
2024-04-24T20:15:30.774Z,3.45
2024-04-24T20:17:59.782Z,3.80
2024-04-24T20:20:28.094Z,4.30
2024-04-24T20:22:57.024Z,4.30
2024-04-24T20:25:26.383Z,3.92
2024-04-24T20:27:55.113Z,4.70
2024-04-24T20:30:23.338Z,4.72
2024-04-24T20:32:54.408Z,4.55
2024-04-24T20:35:22.814Z,4.75
2024-04-24T20:37:51.641Z,5.93
2024-04-24T20:40:19.929Z,4.50
2024-04-24T20:42:50.249Z,4.53
2024-04-24T20:45:19.374Z,4.72
2024-04-24T20:47:48.134Z,5.30
2024-04-24T20:50:18.784Z,5.00
2024-04-24T20:52:47.415Z,3.70
2024-04-24T20:55:15.690Z,2.72
2024-04-24T20:57:44.339Z,2.90
2024-04-24T21:00:13.203Z,2.42
2024-04-24T21:02:42.067Z,1.77
2024-04-24T21:05:10.302Z,1.60
2024-04-24T21:07:39.153Z,0.80
2024-04-24T21:10:07.914Z,1.00
2024-04-24T21:12:36.516Z,1.00
2024-04-24T21:15:05.122Z,0.70
2024-04-24T21:17:33.817Z,0.70
2024-04-24T21:20:02.306Z,1.00
2024-04-24T21:22:31.086Z,1.10
2024-04-24T21:24:59.287Z,0.80
2024-04-24T21:27:28.390Z,0.65
2024-04-24T21:29:56.758Z,1.20
2024-04-24T21:32:25.789Z,0.70
2024-04-24T21:34:54.059Z,1.10
2024-04-24T21:37:22.718Z,0.90
2024-04-24T21:39:51.984Z,0.75
2024-04-24T21:42:20.528Z,1.15
2024-04-24T21:44:48.785Z,0.90
2024-04-24T21:47:17.842Z,1.00
2024-04-24T21:49:46.098Z,1.00
2024-04-24T21:52:14.812Z,1.17
2024-04-24T21:54:43.027Z,0.80
2024-04-24T21:57:11.629Z,0.82
2024-04-24T21:59:39.879Z,1.00
2024-04-24T22:02:08.743Z,0.98
2024-04-24T22:04:39.343Z,1.08
2024-04-24T22:07:07.974Z,0.98
2024-04-24T22:09:36.104Z,1.10
2024-04-24T22:12:05.191Z,0.80
2024-04-24T22:14:33.587Z,0.90
2024-04-24T22:17:03.789Z,0.93
2024-04-24T22:19:35.046Z,0.82
2024-04-24T22:22:04.445Z,0.85
2024-04-24T22:24:32.542Z,0.95
2024-04-24T22:27:01.181Z,0.80
2024-04-24T22:29:29.385Z,1.15
2024-04-24T22:31:58.207Z,1.00
2024-04-24T22:34:26.366Z,1.00
2024-04-24T22:36:55.028Z,0.95
2024-04-24T22:39:23.318Z,1.30
2024-04-24T22:41:51.899Z,0.98
2024-04-24T22:44:20.018Z,2.08
2024-04-24T22:46:48.795Z,1.10
2024-04-24T22:49:16.910Z,1.30
2024-04-24T22:51:46.105Z,1.10
2024-04-24T22:54:14.306Z,0.90
2024-04-24T22:56:43.515Z,1.08
2024-04-24T22:59:11.819Z,1.17
2024-04-24T23:01:40.527Z,1.02
2024-04-24T23:04:09.783Z,1.27
2024-04-24T23:06:38.498Z,1.50
2024-04-24T23:09:07.247Z,1.13
2024-04-24T23:11:35.927Z,1.17
2024-04-24T23:14:04.199Z,1.15
2024-04-24T23:16:32.972Z,0.73
2024-04-24T23:19:01.223Z,1.17
2024-04-24T23:21:29.849Z,0.90
2024-04-24T23:23:57.976Z,1.08
2024-04-24T23:26:26.901Z,0.93
2024-04-24T23:28:55.025Z,1.15
2024-04-24T23:31:23.567Z,1.10
2024-04-24T23:33:51.715Z,0.93
2024-04-24T23:36:20.294Z,1.38
2024-04-24T23:38:48.426Z,1.20
2024-04-24T23:41:18.039Z,1.30
2024-04-24T23:43:46.264Z,1.00
2024-04-24T23:46:15.225Z,1.45
2024-04-24T23:48:43.797Z,1.40
2024-04-24T23:51:12.425Z,1.48
2024-04-24T23:53:40.548Z,1.10
2024-04-24T23:56:09.187Z,1.25
2024-04-24T23:58:37.258Z,1.27
